West Renovo, Pennsylvania
Current Conditions -  °F | °C
As of 11:15 PM on Wednesday 22 Oct 2014 (Local Time) from KN38 Reporting Station
Overcast Overcast  
Wind Chill: 34°   Ceiling: 600
Heat Index: 43°   Visibility: 10mi
Dew Point: 43°   Wind: 23mph
Humidity: 100%   Direction: 360°N
Pressure: 30.05"   Gusts: 33mph
Location:  41.3916°N, 77.7796°W
Report Text: KN38 230315Z AUTO 36020G29KT 10SM OVC006 06/06 A3005 RMK AO2 LTG DSNT E
Loading
Personal Weather Stations






























Interactive Weather Map
Tropical Storm Tracking
New forecast layout! Learn more

10-Day Weather Forecast

Advertisements
Track Severe Weather on mobile